Time;durP1;ratioP1;P1;durP2;ratioP2;P2;SDS_P1;SDS_P2;PMS_P1;PMS_P2;Temp;Humidity;BMP_temperature;BMP_pressure;BME280_temperature;BME280_humidity;BME280_pressure;Samples;Min_cycle;Max_cycle;Signal;HPM_P1;HPM_P2
2022/10/23 00:00:21;;;;;;;8.63;3.78;;;11.00;99.90;;;;;;4937834;29;20054;-69
2022/10/23 00:02:53;;;;;;;7.22;4.32;;;11.00;99.90;;;;;;4937737;29;20518;-69
2022/10/23 00:05:20;;;;;;;6.90;3.97;;;11.10;99.90;;;;;;4922312;29;20148;-68
2022/10/23 00:07:54;;;;;;;9.15;4.07;;;11.00;99.90;;;;;;4958179;29;20074;-69
2022/10/23 00:10:22;;;;;;;12.77;4.72;;;11.00;99.90;;;;;;4958588;29;20082;-69
2022/10/23 00:12:48;;;;;;;6.50;4.55;;;11.00;99.90;;;;;;4959017;29;20043;-69
2022/10/23 00:15:15;;;;;;;9.98;4.75;;;11.00;99.90;;;;;;4941458;29;20058;-68
2022/10/23 00:17:41;;;;;;;6.30;4.20;;;11.00;99.90;;;;;;4941712;29;20059;-69
2022/10/23 00:20:07;;;;;;;6.72;4.03;;;11.00;99.90;;;;;;4941575;29;20097;-69
2022/10/23 00:22:33;;;;;;;6.35;4.30;;;10.90;99.90;;;;;;4941289;29;20047;-69
2022/10/23 00:24:59;;;;;;;6.50;3.83;;;11.00;99.90;;;;;;4958314;29;20059;-69
2022/10/23 00:27:25;;;;;;;8.15;4.55;;;10.90;99.90;;;;;;4941254;29;20110;-69
2022/10/23 00:29:51;;;;;;;6.38;3.83;;;10.90;99.90;;;;;;4941242;29;20046;-69
2022/10/23 00:32:16;;;;;;;8.80;4.63;;;10.90;99.90;;;;;;4958554;29;20039;-68
2022/10/23 00:34:42;;;;;;;5.22;3.75;;;10.90;99.90;;;;;;4958583;29;20050;-69
2022/10/23 00:37:08;;;;;;;7.25;4.82;;;11.00;99.90;;;;;;4958170;29;20047;-69
2022/10/23 00:39:33;;;;;;;7.18;4.70;;;10.90;99.90;;;;;;4958512;29;20051;-69
2022/10/23 00:41:59;;;;;;;6.30;4.18;;;10.90;99.90;;;;;;4940884;29;20054;-69
2022/10/23 00:44:27;;;;;;;8.55;4.60;;;11.00;99.90;;;;;;4940889;29;20452;-69
2022/10/23 00:46:53;;;;;;;13.73;4.40;;;11.00;99.90;;;;;;4958395;29;20049;-69
2022/10/23 00:49:19;;;;;;;5.55;3.70;;;10.90;99.90;;;;;;4958342;29;20122;-69
2022/10/23 00:51:55;;;;;;;6.80;3.90;;;11.00;99.90;;;;;;4940871;29;20109;-70
2022/10/23 00:54:25;;;;;;;15.75;4.50;;;10.90;99.90;;;;;;4958221;29;20039;-69
2022/10/23 00:56:58;;;;;;;9.27;3.97;;;10.90;99.90;;;;;;4958178;29;20043;-69
2022/10/23 00:59:24;;;;;;;6.60;3.90;;;10.90;99.90;;;;;;4957862;29;20084;-69
2022/10/23 01:01:50;;;;;;;4.68;3.10;;;10.80;99.90;;;;;;4940535;29;20127;-69
2022/10/23 01:04:16;;;;;;;5.57;3.50;;;10.80;99.90;;;;;;4940603;29;20047;-69
2022/10/23 01:06:58;;;;;;;8.75;4.50;;;10.80;99.90;;;;;;4957719;29;20434;-69
2022/10/23 01:09:56;;;;;;;6.47;4.15;;;10.80;99.90;;;;;;4940434;29;20075;-69
2022/10/23 01:12:49;;;;;;;6.57;4.15;;;10.80;99.90;;;;;;4957906;29;20047;-69
2022/10/23 01:15:25;;;;;;;5.68;3.90;;;10.80;99.90;;;;;;4940665;29;20569;-68
2022/10/23 01:18:16;;;;;;;7.10;4.10;;;10.70;99.90;;;;;;4939846;29;20078;-70
2022/10/23 01:20:44;;;;;;;;;;;10.70;99.90;;;;;;4958203;29;20047;-69
2022/10/23 01:23:23;;;;;;;7.68;3.63;;;10.70;99.90;;;;;;4940155;29;20393;-69
2022/10/23 01:26:14;;;;;;;6.43;3.55;;;10.70;99.90;;;;;;4957679;29;20051;-70
2022/10/23 01:29:03;;;;;;;6.18;4.10;;;10.70;99.90;;;;;;4957674;29;20391;-69
2022/10/23 01:31:56;;;;;;;7.63;3.08;;;10.70;99.90;;;;;;4920034;29;20406;-69
2022/10/23 01:34:30;;;;;;;11.23;3.75;;;10.70;99.90;;;;;;4956555;29;20054;-69
2022/10/23 01:37:00;;;;;;;8.50;4.28;;;10.70;99.90;;;;;;4957272;29;20050;-70
2022/10/23 01:39:32;;;;;;;6.03;3.75;;;10.70;99.90;;;;;;4939866;29;20047;-69
2022/10/23 01:42:10;;;;;;;8.55;4.63;;;10.70;99.90;;;;;;4957337;29;20523;-69
2022/10/23 01:45:07;;;;;;;11.07;4.15;;;10.60;99.90;;;;;;4957303;29;20050;-70
2022/10/23 01:47:34;;;;;;;6.82;3.95;;;10.70;99.90;;;;;;4953055;29;20097;-69
2022/10/23 01:50:03;;;;;;;5.93;3.40;;;10.60;99.90;;;;;;4940070;29;20047;-69
2022/10/23 01:52:29;;;;;;;7.03;3.88;;;10.60;99.90;;;;;;4939631;29;20161;-69
2022/10/23 01:54:58;;;;;;;6.72;3.97;;;10.60;99.90;;;;;;4939994;29;20091;-70
2022/10/23 01:57:27;;;;;;;4.82;3.63;;;10.60;99.90;;;;;;4940068;29;20109;-69
2022/10/23 01:59:57;;;;;;;8.20;3.67;;;10.60;99.90;;;;;;4939956;29;20043;-70
2022/10/23 02:02:23;;;;;;;6.80;4.20;;;10.50;99.90;;;;;;4939472;29;20043;-70
2022/10/23 02:05:03;;;;;;;7.25;3.80;;;10.50;99.90;;;;;;4956926;29;20091;-69
2022/10/23 02:07:29;;;;;;;6.18;3.72;;;10.50;99.90;;;;;;4956863;29;20035;-70
2022/10/23 02:09:55;;;;;;;8.85;3.30;;;10.50;99.90;;;;;;4939608;29;20399;-69
2022/10/23 02:12:31;;;;;;;7.88;3.90;;;10.50;99.90;;;;;;4939320;29;20046;-69
2022/10/23 02:15:06;;;;;;;6.28;4.07;;;10.50;99.90;;;;;;4939322;29;20043;-69
2022/10/23 02:17:54;;;;;;;5.20;3.20;;;10.50;99.90;;;;;;4939196;29;20106;-69
2022/10/23 02:20:35;;;;;;;4.93;3.40;;;10.50;99.90;;;;;;4956611;29;20051;-69
2022/10/23 02:23:15;;;;;;;6.55;3.45;;;10.60;99.90;;;;;;4956185;28;20373;-68
2022/10/23 02:25:58;;;;;;;5.22;3.78;;;10.60;99.90;;;;;;4956297;29;20031;-69
2022/10/23 02:28:29;;;;;;;7.18;4.13;;;10.60;99.90;;;;;;4938755;28;20122;-69
2022/10/23 02:30:58;;;;;;;8.52;4.80;;;10.80;99.90;;;;;;4956297;29;20039;-69
2022/10/23 02:33:26;;;;;;;7.32;4.40;;;10.70;99.90;;;;;;4938908;29;20054;-69
2022/10/23 02:35:52;;;;;;;7.90;4.40;;;10.70;99.90;;;;;;4956447;29;20046;-69
2022/10/23 02:38:37;;;;;;;6.72;4.50;;;10.70;99.90;;;;;;4938831;29;20415;-69
2022/10/23 02:41:19;;;;;;;5.07;3.88;;;10.80;99.90;;;;;;4938967;29;20031;-69
2022/10/23 02:44:14;;;;;;;8.40;4.50;;;11.10;99.90;;;;;;4956171;29;20051;-69
2022/10/23 02:47:10;;;;;;;9.13;4.38;;;10.80;99.90;;;;;;4905387;29;20054;-69
2022/10/23 02:49:54;;;;;;;8.32;4.93;;;10.70;99.90;;;;;;4956116;29;20110;-69
2022/10/23 02:52:41;;;;;;;6.18;4.40;;;10.80;99.90;;;;;;4956075;29;20039;-70
2022/10/23 02:55:09;;;;;;;8.32;4.72;;;10.80;99.90;;;;;;4955798;29;20051;-68
2022/10/23 02:58:17;;;;;;;8.85;4.15;;;10.80;99.90;;;;;;4938417;29;20035;-69
2022/10/23 03:00:49;;;;;;;7.95;4.72;;;10.80;99.90;;;;;;4881241;29;20044;-69
2022/10/23 03:03:32;;;;;;;6.55;4.47;;;10.70;99.90;;;;;;4896485;29;20057;-69
2022/10/23 03:05:58;;;;;;;5.63;3.92;;;10.70;99.90;;;;;;4916911;29;20081;-68
2022/10/23 03:08:24;;;;;;;7.40;4.63;;;10.70;99.90;;;;;;4938608;29;20138;-69
2022/10/23 03:10:50;;;;;;;13.38;4.70;;;10.70;99.90;;;;;;4938616;29;20043;-69
2022/10/23 03:13:16;;;;;;;8.32;4.85;;;10.60;99.90;;;;;;4938271;29;20058;-68
2022/10/23 03:15:42;;;;;;;6.38;4.13;;;10.80;99.90;;;;;;4955731;29;20043;-68
2022/10/23 03:18:08;;;;;;;12.52;4.60;;;10.60;99.90;;;;;;4955696;29;20114;-69
2022/10/23 03:20:34;;;;;;;6.38;4.82;;;10.90;99.90;;;;;;4938237;29;20133;-69
2022/10/23 03:22:59;;;;;;;5.93;4.43;;;10.60;99.90;;;;;;4955430;29;20145;-69
2022/10/23 03:25:25;;;;;;;10.38;5.45;;;10.70;99.90;;;;;;4937985;29;20077;-69
2022/10/23 03:27:51;;;;;;;7.20;4.15;;;10.60;99.90;;;;;;4922321;29;20049;-69
2022/10/23 03:30:17;;;;;;;6.03;4.05;;;10.60;99.90;;;;;;4938415;29;20031;-68
2022/10/23 03:32:43;;;;;;;11.70;4.57;;;10.50;99.90;;;;;;4938044;29;20122;-69
2022/10/23 03:35:09;;;;;;;6.88;4.47;;;10.50;99.90;;;;;;4955449;29;20464;-69
2022/10/23 03:37:34;;;;;;;13.95;4.40;;;10.50;99.90;;;;;;4937963;29;20466;-69
2022/10/23 03:40:00;;;;;;;6.32;3.92;;;10.50;99.90;;;;;;4938094;29;20054;-69
2022/10/23 03:42:26;;;;;;;9.57;4.85;;;10.50;99.90;;;;;;4922216;29;20039;-69
2022/10/23 03:44:52;;;;;;;8.00;4.20;;;10.50;99.90;;;;;;4955330;29;20515;-69
2022/10/23 03:47:17;;;;;;;8.10;4.75;;;10.50;99.90;;;;;;4955358;29;20127;-69
2022/10/23 03:49:43;;;;;;;7.32;3.92;;;10.50;99.90;;;;;;4955086;29;20047;-69
2022/10/23 03:52:09;;;;;;;5.25;4.18;;;10.50;99.90;;;;;;4955345;29;20042;-69
2022/10/23 03:54:34;;;;;;;7.05;4.35;;;10.50;99.90;;;;;;4954946;29;20086;-68
2022/10/23 03:57:01;;;;;;;9.70;4.75;;;10.50;99.90;;;;;;4955194;29;20043;-69
2022/10/23 03:59:27;;;;;;;6.47;4.28;;;10.60;99.90;;;;;;4937774;29;20145;-69
2022/10/23 04:01:53;;;;;;;6.75;4.63;;;10.50;99.90;;;;;;4937824;29;20039;-69
2022/10/23 04:04:18;;;;;;;8.32;4.32;;;10.50;99.90;;;;;;4937677;29;20462;-69
2022/10/23 04:06:44;;;;;;;7.00;3.88;;;10.50;99.90;;;;;;4954925;29;20062;-69
2022/10/23 04:09:10;;;;;;;7.78;4.50;;;10.50;99.90;;;;;;4937742;29;20043;-69
2022/10/23 04:11:36;;;;;;;15.30;4.82;;;10.40;99.90;;;;;;4937667;29;20411;-69
2022/10/23 04:14:02;;;;;;;7.60;4.18;;;10.40;99.90;;;;;;4937700;29;20463;-69
2022/10/23 04:16:27;;;;;;;10.85;5.18;;;10.40;99.90;;;;;;4937648;29;20054;-69
2022/10/23 04:18:53;;;;;;;8.63;4.45;;;10.60;99.90;;;;;;4955043;29;20097;-69
2022/10/23 04:21:19;;;;;;;6.55;4.38;;;10.40;99.90;;;;;;4937546;29;20467;-68
2022/10/23 04:23:45;;;;;;;6.15;4.07;;;10.30;99.90;;;;;;4954780;28;20064;-69
2022/10/23 04:26:10;;;;;;;7.43;5.00;;;10.30;99.90;;;;;;4937591;29;20143;-69
2022/10/23 04:28:36;;;;;;;8.10;4.75;;;10.40;99.90;;;;;;4937856;29;20102;-69
2022/10/23 04:31:02;;;;;;;8.55;4.47;;;10.30;99.90;;;;;;4937784;29;20130;-69
2022/10/23 04:33:27;;;;;;;13.43;4.38;;;10.30;99.90;;;;;;4954617;29;20160;-69
2022/10/23 04:35:53;;;;;;;10.93;5.05;;;10.30;99.90;;;;;;4922003;29;20134;-69
2022/10/23 04:38:19;;;;;;;7.40;4.13;;;10.30;99.90;;;;;;4954874;29;20039;-69
2022/10/23 04:40:45;;;;;;;9.63;4.03;;;10.30;99.90;;;;;;4937776;29;20129;-69
2022/10/23 04:43:10;;;;;;;13.13;4.63;;;10.30;99.90;;;;;;4954800;29;20125;-69
2022/10/23 04:45:36;;;;;;;6.30;4.30;;;10.70;99.90;;;;;;4937774;29;20097;-69
2022/10/23 04:48:02;;;;;;;7.18;3.92;;;10.40;99.90;;;;;;4937565;29;20451;-69
2022/10/23 04:50:28;;;;;;;5.68;3.90;;;10.30;99.90;;;;;;4954789;29;20122;-69
2022/10/23 04:52:55;;;;;;;9.50;4.63;;;10.30;99.90;;;;;;4938827;29;20047;-69
2022/10/23 04:55:22;;;;;;;7.32;4.95;;;10.30;99.90;;;;;;4958205;29;20078;-69
2022/10/23 04:57:47;;;;;;;7.13;4.20;;;10.30;99.90;;;;;;4940728;29;20051;-69
2022/10/23 05:00:14;;;;;;;8.85;4.90;;;10.30;99.90;;;;;;4958099;29;20039;-69
2022/10/23 05:02:40;;;;;;;7.80;4.63;;;10.30;99.90;;;;;;4957753;29;20083;-69
2022/10/23 05:05:07;;;;;;;9.90;4.57;;;10.30;99.90;;;;;;4940776;29;20081;-70
2022/10/23 05:07:33;;;;;;;9.90;4.75;;;10.20;99.90;;;;;;4940769;29;20078;-69
2022/10/23 05:09:59;;;;;;;8.10;4.65;;;10.20;99.90;;;;;;4958070;29;20050;-69
2022/10/23 05:12:26;;;;;;;10.63;4.85;;;10.20;99.90;;;;;;4940439;29;20126;-69
2022/10/23 05:14:52;;;;;;;5.85;4.13;;;10.10;99.90;;;;;;4924537;29;20130;-69
2022/10/23 05:17:36;;;;;;;8.02;4.78;;;10.10;99.90;;;;;;4908841;29;20126;-69
2022/10/23 05:20:06;;;;;;;10.60;4.50;;;10.20;99.90;;;;;;4957835;29;20045;-69
2022/10/23 05:22:35;;;;;;;9.18;4.85;;;10.10;99.90;;;;;;4957667;29;20566;-68
2022/10/23 05:25:03;;;;;;;10.43;4.47;;;10.10;99.90;;;;;;4957362;29;20055;-67
2022/10/23 05:27:29;;;;;;;8.45;4.70;;;10.10;99.90;;;;;;4940111;29;20043;-69
2022/10/23 05:29:54;;;;;;;9.02;4.70;;;10.10;99.90;;;;;;4957609;29;20106;-71
2022/10/23 05:32:21;;;;;;;7.18;4.00;;;10.30;99.90;;;;;;4924222;29;20480;-70
2022/10/23 05:34:47;;;;;;;7.68;4.57;;;10.10;99.90;;;;;;4939976;29;20082;-71
2022/10/23 05:37:15;;;;;;;7.25;4.13;;;10.00;99.90;;;;;;4940083;29;20075;-69
2022/10/23 05:39:41;;;;;;;8.25;4.38;;;10.00;99.90;;;;;;4940305;29;20384;-70
2022/10/23 05:42:06;;;;;;;9.68;4.10;;;10.00;99.90;;;;;;4939820;29;20081;-70
2022/10/23 05:44:32;;;;;;;8.98;5.75;;;10.70;99.90;;;;;;4939941;29;20075;-70
2022/10/23 05:46:58;;;;;;;7.70;4.60;;;10.00;99.90;;;;;;4957213;29;20066;-68
2022/10/23 05:49:24;;;;;;;9.05;4.82;;;10.00;99.90;;;;;;4940038;29;20043;-68
2022/10/23 05:51:50;;;;;;;9.68;4.82;;;10.00;99.90;;;;;;4940042;29;20070;-69
2022/10/23 05:54:15;;;;;;;9.57;5.57;;;10.00;99.90;;;;;;4939724;29;20502;-69
2022/10/23 05:56:41;;;;;;;6.60;4.47;;;10.00;99.90;;;;;;4957149;29;20043;-69
2022/10/23 05:59:08;;;;;;;6.88;4.60;;;10.00;99.90;;;;;;4956868;29;20071;-70
2022/10/23 06:01:35;;;;;;;6.97;4.32;;;10.00;99.90;;;;;;4923888;29;20058;-70
2022/10/23 06:04:01;;;;;;;7.43;4.93;;;9.90;99.90;;;;;;4939450;29;20047;-70
2022/10/23 06:06:26;;;;;;;7.78;4.50;;;10.00;99.90;;;;;;4939431;29;20183;-70
2022/10/23 06:08:53;;;;;;;8.57;5.20;;;10.00;99.90;;;;;;4923945;29;20178;-70
2022/10/23 06:11:18;;;;;;;7.00;4.65;;;10.00;99.90;;;;;;4939574;29;20487;-69
2022/10/23 06:13:47;;;;;;;7.28;4.50;;;10.00;99.90;;;;;;4939312;29;20057;-70
2022/10/23 06:16:18;;;;;;;8.90;5.15;;;10.00;99.90;;;;;;4956575;29;20054;-71
2022/10/23 06:18:47;;;;;;;8.82;5.35;;;10.00;99.90;;;;;;4956460;29;20090;-70
2022/10/23 06:21:14;;;;;;;7.15;4.82;;;10.00;99.90;;;;;;4939281;29;20035;-70
2022/10/23 06:23:41;;;;;;;11.57;5.50;;;10.00;99.90;;;;;;4938942;29;20475;-70
2022/10/23 06:26:09;;;;;;;7.93;4.68;;;10.00;99.90;;;;;;4956283;29;20055;-69
2022/10/23 06:28:35;;;;;;;10.65;4.90;;;10.00;99.90;;;;;;4956191;29;20086;-69
2022/10/23 06:31:09;;;;;;;7.47;4.18;;;10.10;99.90;;;;;;4956557;29;20042;-70
2022/10/23 06:33:35;;;;;;;7.38;4.50;;;10.10;99.90;;;;;;4955990;29;20066;-70
2022/10/23 06:36:02;;;;;;;6.53;4.25;;;10.10;99.90;;;;;;4956133;29;20039;-69
2022/10/23 06:38:28;;;;;;;6.55;4.35;;;10.10;99.90;;;;;;4939147;29;20535;-69
2022/10/23 06:40:57;;;;;;;8.35;5.70;;;10.10;99.90;;;;;;4923461;29;20086;-70
2022/10/23 06:43:22;;;;;;;7.30;4.70;;;10.10;99.90;;;;;;4938745;29;20439;-69
2022/10/23 06:45:48;;;;;;;6.25;4.45;;;10.20;99.90;;;;;;4956029;29;20106;-68
2022/10/23 06:48:14;;;;;;;8.85;4.95;;;10.10;99.90;;;;;;4956196;29;20563;-69
2022/10/23 06:50:40;;;;;;;6.55;3.95;;;10.10;99.90;;;;;;4956127;29;20086;-69
2022/10/23 06:53:06;;;;;;;7.22;4.45;;;10.20;99.90;;;;;;4956092;29;20475;-69
2022/10/23 06:55:32;;;;;;;9.00;4.40;;;10.20;99.90;;;;;;4956024;29;20074;-71
2022/10/23 06:57:58;;;;;;;6.90;4.65;;;10.20;99.90;;;;;;4955803;29;20372;-71
2022/10/23 07:00:24;;;;;;;7.15;4.35;;;10.20;99.90;;;;;;4955972;29;20039;-71
2022/10/23 07:02:50;;;;;;;8.13;4.65;;;11.20;99.90;;;;;;4955887;29;20483;-69
2022/10/23 07:05:17;;;;;;;10.75;4.80;;;10.30;99.90;;;;;;4955567;29;20031;-71
2022/10/23 07:07:43;;;;;;;7.75;4.78;;;10.40;99.90;;;;;;4938434;29;20043;-70
2022/10/23 07:10:09;;;;;;;7.88;4.22;;;10.40;99.90;;;;;;4955848;29;20480;-72
2022/10/23 07:12:35;;;;;;;8.65;4.65;;;10.40;99.90;;;;;;4938562;29;20538;-69
2022/10/23 07:15:00;;;;;;;13.27;4.60;;;10.50;99.90;;;;;;4922034;29;20082;-71
2022/10/23 07:17:28;;;;;;;9.35;4.55;;;10.50;99.90;;;;;;4938509;29;20395;-70
2022/10/23 07:19:53;;;;;;;6.68;4.70;;;10.50;99.90;;;;;;4955746;29;20047;-70
2022/10/23 07:22:19;;;;;;;9.77;4.97;;;10.50;99.90;;;;;;4922238;29;20065;-71
2022/10/23 07:24:45;;;;;;;9.25;5.57;;;10.50;99.90;;;;;;4937807;29;20058;-70
2022/10/23 07:27:10;;;;;;;9.45;4.43;;;10.60;99.90;;;;;;4955506;29;20109;-72
2022/10/23 07:29:37;;;;;;;7.53;4.82;;;10.50;99.90;;;;;;4938027;29;20046;-72
2022/10/23 07:32:03;;;;;;;6.40;4.28;;;10.60;99.90;;;;;;4955460;29;20093;-72
2022/10/23 07:34:30;;;;;;;10.60;5.20;;;10.60;99.90;;;;;;4937984;29;20043;-72
2022/10/23 07:36:56;;;;;;;7.72;4.78;;;10.70;99.90;;;;;;4955120;29;20507;-72
2022/10/23 07:39:21;;;;;;;10.15;5.00;;;10.70;99.90;;;;;;4955352;29;20046;-71
2022/10/23 07:41:48;;;;;;;6.03;4.22;;;10.70;99.90;;;;;;4938067;29;20430;-70
2022/10/23 07:44:14;;;;;;;6.13;3.90;;;10.70;99.90;;;;;;4937726;29;20039;-69
2022/10/23 07:46:39;;;;;;;6.97;3.92;;;10.80;99.90;;;;;;4955420;29;20110;-70
2022/10/23 07:49:05;;;;;;;8.40;4.47;;;10.80;99.90;;;;;;4954979;29;20078;-70
2022/10/23 07:51:31;;;;;;;7.07;4.03;;;10.80;99.90;;;;;;4955161;29;20039;-70
2022/10/23 07:53:56;;;;;;;7.65;4.05;;;10.90;99.90;;;;;;4955131;29;20047;-71
2022/10/23 07:56:25;;;;;;;7.85;3.88;;;10.90;99.90;;;;;;4954808;29;20079;-69
2022/10/23 07:58:54;;;;;;;7.22;4.38;;;11.20;99.90;;;;;;4955052;29;20035;-71
2022/10/23 08:01:31;;;;;;;6.38;3.72;;;11.00;99.90;;;;;;4937838;29;20047;-71
2022/10/23 08:03:57;;;;;;;5.03;3.47;;;11.10;99.90;;;;;;4921708;29;20047;-70
2022/10/23 08:06:23;;;;;;;6.88;3.70;;;11.20;99.90;;;;;;4954997;29;20035;-70
2022/10/23 08:08:49;;;;;;;6.25;3.88;;;11.20;99.90;;;;;;4937625;29;20043;-72
2022/10/23 08:11:17;;;;;;;5.43;3.47;;;11.30;99.90;;;;;;4955000;29;20371;-71
2022/10/23 08:13:43;;;;;;;5.43;3.50;;;11.30;99.90;;;;;;4937604;29;20051;-71
2022/10/23 08:16:09;;;;;;;7.32;3.63;;;11.40;99.90;;;;;;4921832;29;20434;-71
2022/10/23 08:18:34;;;;;;;5.78;3.70;;;11.40;99.90;;;;;;4954908;29;20050;-71
2022/10/23 08:21:02;;;;;;;7.75;3.20;;;11.50;99.90;;;;;;4937328;29;20057;-70
2022/10/23 08:23:28;;;;;;;5.20;3.35;;;11.50;99.90;;;;;;4937425;29;20122;-72
2022/10/23 08:25:59;;;;;;;7.50;4.15;;;11.60;99.90;;;;;;4937256;29;20062;-71
2022/10/23 08:28:26;;;;;;;8.73;3.38;;;11.60;99.90;;;;;;4940132;29;20105;-70
2022/10/23 08:30:52;;;;;;;6.05;3.28;;;11.70;99.90;;;;;;4958278;29;20035;-71
2022/10/23 08:33:18;;;;;;;5.47;3.45;;;11.80;99.90;;;;;;4940641;29;20090;-71
2022/10/23 08:35:44;;;;;;;7.18;3.00;;;11.90;99.90;;;;;;4958399;29;20446;-71
2022/10/23 08:38:10;;;;;;;5.88;3.75;;;11.90;99.90;;;;;;4958257;29;20035;-70
2022/10/23 08:40:36;;;;;;;7.03;4.07;;;12.00;99.90;;;;;;4958350;29;20122;-70
2022/10/23 08:43:10;;;;;;;6.78;3.50;;;12.00;99.90;;;;;;4958280;29;20075;-72
2022/10/23 08:45:54;;;;;;;9.25;3.55;;;12.10;99.90;;;;;;4940872;29;20043;-72
2022/10/23 08:48:27;;;;;;;5.72;3.67;;;12.20;99.90;;;;;;4958239;29;20438;-72
2022/10/23 08:50:58;;;;;;;6.75;3.60;;;12.30;99.90;;;;;;4957862;29;20082;-72
2022/10/23 08:53:31;;;;;;;;;;;12.40;99.90;;;;;;4958353;29;20054;-71
2022/10/23 08:56:03;;;;;;;7.97;3.80;;;12.40;99.90;;;;;;4940898;29;20391;-71
2022/10/23 08:58:38;;;;;;;6.15;3.55;;;12.50;99.90;;;;;;4940977;29;20419;-70
2022/10/23 09:01:33;;;;;;;6.90;3.00;;;12.50;99.90;;;;;;4940596;29;20047;-71
2022/10/23 09:03:59;;;;;;;6.25;3.03;;;12.60;99.90;;;;;;4958059;29;20075;-71
2022/10/23 09:06:43;;;;;;;5.57;3.42;;;12.70;99.90;;;;;;4957622;29;20174;-71
2022/10/23 09:09:28;;;;;;;6.40;3.22;;;12.80;99.90;;;;;;4957963;29;20074;-70
2022/10/23 09:12:10;;;;;;;4.93;2.47;;;12.90;99.90;;;;;;4957610;29;20035;-70
2022/10/23 09:14:54;;;;;;;4.78;2.80;;;12.90;99.90;;;;;;4940314;29;20050;-70
2022/10/23 09:17:23;;;;;;;3.60;2.80;;;12.90;99.90;;;;;;4940292;29;20130;-70
2022/10/23 09:20:11;;;;;;;5.38;2.72;;;13.00;99.90;;;;;;4940334;29;20039;-70
2022/10/23 09:22:37;;;;;;;4.13;2.33;;;13.10;99.90;;;;;;4940119;29;20059;-71
2022/10/23 09:25:09;;;;;;;5.07;2.80;;;13.10;99.90;;;;;;4957414;28;20055;-71
2022/10/23 09:27:35;;;;;;;5.00;2.75;;;13.20;99.90;;;;;;4924178;29;20083;-68
2022/10/23 09:30:00;;;;;;;4.43;2.63;;;13.30;99.90;;;;;;4940315;29;20070;-70
2022/10/23 09:32:37;;;;;;;5.30;2.95;;;13.30;99.90;;;;;;4957186;29;20035;-71
2022/10/23 09:35:04;;;;;;;3.85;2.33;;;13.40;99.90;;;;;;4924517;29;20479;-71
2022/10/23 09:37:33;;;;;;;5.28;2.70;;;13.50;99.90;;;;;;4957084;29;20046;-71
2022/10/23 09:40:16;;;;;;;4.00;2.35;;;13.50;99.90;;;;;;4956753;29;20043;-71
2022/10/23 09:43:02;;;;;;;7.03;2.47;;;13.50;99.90;;;;;;4957035;29;20086;-71
2022/10/23 09:45:33;;;;;;;6.35;2.83;;;13.60;99.90;;;;;;4940078;29;20109;-72
2022/10/23 09:48:18;;;;;;;8.25;2.58;;;13.60;99.90;;;;;;4956917;29;20153;-72
2022/10/23 09:50:54;;;;;;;3.85;2.28;;;13.70;99.90;;;;;;4957270;29;20036;-71
2022/10/23 09:53:36;;;;;;;3.47;2.20;;;13.70;99.90;;;;;;4957212;29;20047;-71
2022/10/23 09:56:22;;;;;;;3.88;2.50;;;13.80;99.90;;;;;;4939962;29;20054;-72
2022/10/23 09:59:05;;;;;;;4.03;2.10;;;13.80;99.90;;;;;;4956888;29;20050;-72
2022/10/23 10:01:35;;;;;;;9.10;2.85;;;13.90;99.90;;;;;;4939996;29;20406;-72
2022/10/23 10:04:01;;;;;;;5.63;2.60;;;14.00;99.90;;;;;;4956842;29;20134;-72
2022/10/23 10:06:32;;;;;;;3.70;2.33;;;14.00;99.90;;;;;;4939483;29;20098;-71
2022/10/23 10:09:01;;;;;;;3.80;2.35;;;14.20;99.90;;;;;;4956927;29;20042;-72
2022/10/23 10:11:46;;;;;;;5.05;2.22;;;14.20;99.90;;;;;;4939450;29;20083;-72
2022/10/23 10:14:40;;;;;;;4.72;2.65;;;14.30;99.90;;;;;;4939450;29;20050;-73
2022/10/23 10:21:01;;;;;;;8.95;2.55;;;14.50;99.90;;;;;;4939432;29;20054;-72
2022/10/23 10:23:49;;;;;;;3.75;2.30;;;14.70;99.90;;;;;;4939094;29;20074;-73
2022/10/23 10:26:39;;;;;;;7.72;2.17;;;14.80;99.90;;;;;;4939170;29;20051;-73
2022/10/23 10:29:13;;;;;;;4.13;2.15;;;14.90;99.90;;;;;;4939046;29;20043;-73
2022/10/23 10:32:12;;;;;;;3.55;2.08;;;15.00;99.90;;;;;;4939158;29;20170;-74
2022/10/23 10:34:54;;;;;;;3.17;2.15;;;15.00;99.90;;;;;;4934481;29;20059;-72
2022/10/23 10:37:49;;;;;;;2.15;1.40;;;15.10;99.90;;;;;;4956388;29;20039;-72
2022/10/23 10:40:34;;;;;;;3.47;1.73;;;15.10;99.90;;;;;;4938606;29;20514;-71
2022/10/23 10:43:37;;;;;;;3.13;1.83;;;15.10;99.90;;;;;;4938820;29;20050;-72
2022/10/23 10:46:31;;;;;;;8.85;2.13;;;15.30;99.90;;;;;;4956000;29;20135;-74
2022/10/23 10:49:19;;;;;;;6.18;2.30;;;15.30;99.90;;;;;;4939059;29;20046;-75
2022/10/23 10:51:59;;;;;;;3.10;1.90;;;15.30;99.90;;;;;;4928076;29;20051;-72
2022/10/23 10:55:02;;;;;;;3.00;1.95;;;15.40;99.90;;;;;;4938640;29;20061;-73
2022/10/23 10:57:31;;;;;;;3.15;1.98;;;;;;;;;;4938871;29;20561;-72
2022/10/23 11:00:03;;;;;;;3.88;2.10;;;15.50;99.90;;;;;;4955806;29;20054;-73
2022/10/23 11:02:44;;;;;;;5.05;1.80;;;15.60;99.90;;;;;;4955635;29;20042;-71
2022/10/23 11:05:36;;;;;;;3.92;2.17;;;15.80;99.90;;;;;;4938805;29;20058;-71
2022/10/23 11:08:16;;;;;;;4.43;1.90;;;15.50;99.90;;;;;;4955700;29;20042;-73
2022/10/23 11:10:46;;;;;;;3.88;1.90;;;15.50;99.90;;;;;;4955906;29;20081;-72
2022/10/23 11:13:36;;;;;;;8.38;1.85;;;15.60;99.90;;;;;;4938416;29;20058;-69
2022/10/23 11:16:05;;;;;;;4.53;1.67;;;;;;;;;;4955806;29;20047;-72
2022/10/23 11:18:32;;;;;;;3.88;1.88;;;15.50;99.90;;;;;;4955706;29;20051;-71
2022/10/23 11:21:06;;;;;;;3.75;1.95;;;15.50;99.90;;;;;;4922423;29;20051;-69
2022/10/23 11:23:45;;;;;;;3.10;1.98;;;15.50;99.90;;;;;;4955489;29;20047;-69
2022/10/23 11:26:32;;;;;;;4.72;2.05;;;15.50;99.90;;;;;;4955243;28;20058;-69
2022/10/23 11:29:24;;;;;;;4.28;1.77;;;15.50;99.90;;;;;;4938182;29;20043;-67
2022/10/23 11:32:23;;;;;;;4.28;1.70;;;15.50;99.90;;;;;;4955124;29;20043;-70
2022/10/23 11:35:02;;;;;;;4.00;1.63;;;15.40;99.90;;;;;;4955487;29;20392;-69
2022/10/23 11:37:28;;;;;;;3.65;2.03;;;15.40;99.90;;;;;;4938180;29;20053;-69
2022/10/23 11:40:06;;;;;;;6.43;1.95;;;15.40;99.90;;;;;;4938309;29;20043;-68
2022/10/23 11:42:39;;;;;;;4.90;2.45;;;15.40;99.90;;;;;;4937931;29;20079;-70
2022/10/23 11:45:28;;;;;;;7.18;1.88;;;15.40;99.90;;;;;;4938006;29;20047;-65
2022/10/23 11:48:05;;;;;;;9.77;2.25;;;15.50;99.90;;;;;;4938148;29;20043;-69
2022/10/23 11:50:54;;;;;;;3.45;1.83;;;15.50;99.90;;;;;;4955408;29;20364;-66
2022/10/23 11:53:35;;;;;;;3.58;1.75;;;15.40;99.90;;;;;;4922109;29;20043;-70
2022/10/23 11:56:10;;;;;;;3.83;1.88;;;15.40;99.90;;;;;;4922069;29;20054;-71
2022/10/23 11:58:45;;;;;;;3.97;1.95;;;15.40;99.90;;;;;;4937840;29;20070;-71
2022/10/23 12:01:27;;;;;;;2.17;1.50;;;15.50;99.90;;;;;;4922719;29;20062;-69
2022/10/23 12:04:00;;;;;;;6.97;1.85;;;15.50;99.90;;;;;;4959200;29;20044;-70
2022/10/23 12:06:36;;;;;;;2.10;1.42;;;15.50;99.90;;;;;;4958809;29;20105;-69
2022/10/23 12:09:08;;;;;;;2.03;1.20;;;15.50;99.90;;;;;;4941675;29;20130;-67
2022/10/23 12:11:43;;;;;;;3.42;1.60;;;15.50;99.90;;;;;;4958774;29;20035;-67
2022/10/23 12:14:26;;;;;;;2.47;1.70;;;15.60;99.90;;;;;;4941498;29;20155;-68
2022/10/23 12:16:51;;;;;;;4.80;2.10;;;15.60;99.90;;;;;;4941761;29;20495;-68
2022/10/23 12:19:20;;;;;;;3.35;1.55;;;15.60;99.90;;;;;;4941382;29;20139;-69
2022/10/23 12:21:49;;;;;;;3.30;1.80;;;15.70;99.90;;;;;;4958544;29;20102;-68
2022/10/23 12:24:38;;;;;;;5.13;1.63;;;15.70;99.90;;;;;;4958452;29;20518;-68
2022/10/23 12:27:25;;;;;;;4.32;1.50;;;15.70;99.90;;;;;;4958529;29;20057;-69
2022/10/23 12:29:51;;;;;;;4.43;1.83;;;15.70;99.90;;;;;;4958738;29;20040;-69
2022/10/23 12:32:40;;;;;;;8.05;2.90;;;15.80;99.90;;;;;;4941452;29;20036;-69
2022/10/23 12:35:09;;;;;;;42.38;12.77;;;15.80;99.90;;;;;;4958271;29;20050;-68
2022/10/23 12:37:43;;;;;;;67.63;17.67;;;15.80;99.90;;;;;;4958205;29;20074;-70
2022/10/23 12:40:10;;;;;;;9.05;3.28;;;15.90;99.90;;;;;;4941187;29;20051;-70
2022/10/23 12:42:37;;;;;;;8.73;2.60;;;16.00;99.90;;;;;;4958431;29;20509;-71
2022/10/23 12:45:20;;;;;;;5.32;2.05;;;16.00;99.90;;;;;;4940963;29;20035;-69
2022/10/23 12:47:47;;;;;;;5.00;2.25;;;15.90;99.90;;;;;;4941117;29;20058;-69
2022/10/23 12:50:24;;;;;;;5.03;2.83;;;16.00;99.90;;;;;;4958310;29;20101;-68
2022/10/23 12:52:55;;;;;;;2.78;1.58;;;16.00;99.90;;;;;;4940799;29;20054;-68
2022/10/23 12:55:22;;;;;;;6.25;2.15;;;16.00;99.90;;;;;;4924933;29;20443;-68
2022/10/23 12:57:48;;;;;;;4.55;1.95;;;16.10;99.90;;;;;;4957903;29;20122;-67
2022/10/23 13:00:18;;;;;;;3.17;1.33;;;16.00;99.90;;;;;;4940777;29;20050;-69
2022/10/23 13:02:44;;;;;;;4.90;1.98;;;16.00;99.90;;;;;;4958160;29;20562;-69
2022/10/23 13:05:19;;;;;;;3.03;1.67;;;16.00;99.90;;;;;;4940677;29;20047;-68
2022/10/23 13:07:47;;;;;;;5.38;1.83;;;16.00;99.90;;;;;;4925081;29;20048;-67
2022/10/23 13:10:15;;;;;;;1.88;1.17;;;16.00;99.90;;;;;;4940621;29;20039;-66
2022/10/23 13:12:46;;;;;;;1.92;1.42;;;16.10;99.90;;;;;;4924269;28;20395;-68
2022/10/23 13:15:18;;;;;;;4.90;1.58;;;16.10;99.90;;;;;;4940599;29;20043;-68